Felix-Klein-Gymnasium, Gttingen, 150m NN
Wetterdaten: aktuell Freitag, 22.11.2019 19:30
Datum Zeit Temp. A. Feuchte A. Luftdruck Regen Wind Richtung Richtung Sonnenschein Taupunkt Windchill Windben
22.11.2019 19:30 4,9 C 91 % 1006,4 hPa 0,0 mm 0,5 km/h (0 Bft) O-SO 102 0 min 3,6 C 4,9 C 9,7 km/h (2 Bft)
22.11.2019 19:15 5,0 C 91 % 1006,4 hPa 0,0 mm 3,4 km/h (1 Bft) S-SO 168 0 min 3,7 C 5,0 C 16,1 km/h (3 Bft)
22.11.2019 19:00 5,1 C 90 % 1006,4 hPa 0,0 mm 5,1 km/h (1 Bft) SO 125 0 min 3,6 C 4,2 C 17,7 km/h (3 Bft)
22.11.2019 18:45 5,2 C 91 % 1006,4 hPa 0,0 mm 3,0 km/h (1 Bft) SO 129 0 min 3,9 C 5,2 C 14,5 km/h (3 Bft)
22.11.2019 18:30 5,3 C 91 % 1006,4 hPa 0,0 mm 0,5 km/h (0 Bft) SO 138 0 min 4,0 C 5,3 C 12,9 km/h (3 Bft)
22.11.2019 18:15 5,3 C 90 % 1006,4 hPa 0,0 mm 2,8 km/h (1 Bft) S-SO 155 0 min 3,8 C 5,3 C 14,5 km/h (3 Bft)
22.11.2019 18:00 5,4 C 90 % 1006,4 hPa 0,0 mm 5,2 km/h (1 Bft) SO 136 0 min 3,9 C 4,5 C 22,5 km/h (4 Bft)
22.11.2019 17:45 5,8 C 89 % 1006,5 hPa 0,0 mm 2,7 km/h (1 Bft) SO 127 0 min 4,1 C 5,8 C 14,5 km/h (3 Bft)
22.11.2019 17:30 5,9 C 89 % 1006,6 hPa 0,0 mm 0,4 km/h (0 Bft) SO 141 0 min 4,2 C 5,9 C 9,7 km/h (2 Bft)
22.11.2019 17:15 5,9 C 88 % 1006,5 hPa 0,0 mm 0,0 km/h (0 Bft) SO 143 0 min 4,1 C 5,9 C 0,0 km/h (0 Bft)
22.11.2019 17:00 5,9 C 88 % 1006,5 hPa 0,0 mm 1,4 km/h (1 Bft) SO 140 0 min 4,1 C 5,9 C 9,7 km/h (2 Bft)
22.11.2019 16:45 5,9 C 88 % 1006,6 hPa 0,0 mm 1,7 km/h (1 Bft) S-SO 165 0 min 4,1 C 5,9 C 12,9 km/h (3 Bft)
22.11.2019 16:30 5,9 C 88 % 1006,6 hPa 0,0 mm 0,0 km/h (0 Bft) S-SO 150 0 min 4,1 C 5,9 C 0,0 km/h (0 Bft)
22.11.2019 16:15 5,9 C 88 % 1006,5 hPa 0,0 mm 0,5 km/h (0 Bft) S-SO 167 0 min 4,1 C 5,9 C 8,0 km/h (2 Bft)
22.11.2019 16:00 5,9 C 88 % 1006,6 hPa 0,0 mm 0,0 km/h (0 Bft) S 190 0 min 4,1 C 5,9 C 0,0 km/h (0 Bft)
22.11.2019 15:45 6,0 C 88 % 1006,6 hPa 0,0 mm 0,0 km/h (0 Bft) S 184 0 min 4,2 C 6,0 C 0,0 km/h (0 Bft)
22.11.2019 15:30 6,0 C 88 % 1006,5 hPa 0,0 mm 0,2 km/h (0 Bft) S 186 0 min 4,2 C 6,0 C 11,3 km/h (2 Bft)
22.11.2019 15:15 6,1 C 88 % 1006,5 hPa 0,0 mm 0,0 km/h (0 Bft) S-SW 207 0 min 4,3 C 6,1 C 0,0 km/h (0 Bft)
22.11.2019 15:00 6,1 C 88 % 1006,4 hPa 0,0 mm 0,1 km/h (0 Bft) S 184 0 min 4,3 C 6,1 C 8,0 km/h (2 Bft)
22.11.2019 14:45 6,1 C 88 % 1006,5 hPa 0,0 mm 0,2 km/h (0 Bft) S 189 0 min 4,3 C 6,1 C 8,0 km/h (2 Bft)
22.11.2019 14:30 6,1 C 88 % 1006,7 hPa 0,0 mm 1,0 km/h (0 Bft) S-SW 207 0 min 4,3 C 6,1 C 8,0 km/h (2 Bft)
22.11.2019 14:15 6,2 C 89 % 1006,6 hPa 0,0 mm 0,2 km/h (0 Bft) S-SW 203 0 min 4,5 C 6,2 C 6,4 km/h (2 Bft)
22.11.2019 14:00 6,2 C 89 % 1006,7 hPa 0,0 mm 0,0 km/h (0 Bft) S 178 0 min 4,5 C 6,2 C 4,8 km/h (1 Bft)
22.11.2019 13:45 6,3 C 89 % 1006,7 hPa 0,0 mm 0,3 km/h (0 Bft) S-SW 198 0 min 4,6 C 6,3 C 8,0 km/h (2 Bft)
22.11.2019 13:30 6,2 C 89 % 1006,8 hPa 0,0 mm 0,2 km/h (0 Bft) S-SO 157 0 min 4,5 C 6,2 C 6,4 km/h (2 Bft)
22.11.2019 13:15 5,9 C 90 % 1006,8 hPa 0,0 mm 0,3 km/h (0 Bft) S 173 0 min 4,4 C 5,9 C 8,0 km/h (2 Bft)
22.11.2019 13:00 5,7 C 90 % 1006,9 hPa 0,0 mm 0,0 km/h (0 Bft) O-SO 109 0 min 4,2 C 5,7 C 0,0 km/h (0 Bft)
22.11.2019 12:45 5,5 C 91 % 1007,2 hPa 0,0 mm 0,0 km/h (0 Bft) S 175 0 min 4,2 C 5,5 C 0,0 km/h (0 Bft)
22.11.2019 12:30 5,4 C 91 % 1007,5 hPa 0,0 mm 0,0 km/h (0 Bft) O 92 0 min 4,1 C 5,4 C 0,0 km/h (0 Bft)
22.11.2019 12:15 5,2 C 92 % 1007,5 hPa 0,0 mm 0,0 km/h (0 Bft) S 188 0 min 4,0 C 5,2 C 0,0 km/h (0 Bft)
22.11.2019 12:00 5,1 C 92 % 1007,5 hPa 0,0 mm 0,4 km/h (0 Bft) S 186 0 min 3,9 C 5,1 C 9,7 km/h (2 Bft)
22.11.2019 11:45 4,9 C 93 % 1007,7 hPa 0,0 mm 0,0 km/h (0 Bft) S-SO 151 0 min 3,9 C 4,9 C 0,0 km/h (0 Bft)
22.11.2019 11:30 4,8 C 93 % 1008,1 hPa 0,0 mm 0,4 km/h (0 Bft) S 171 0 min 3,8 C 4,8 C 11,3 km/h (2 Bft)
22.11.2019 11:15 4,6 C 94 % 1008,3 hPa 0,0 mm 3,8 km/h (1 Bft) S-SW 192 0 min 3,7 C 4,6 C 17,7 km/h (3 Bft)
22.11.2019 11:00 4,5 C 95 % 1008,5 hPa 0,0 mm 2,2 km/h (1 Bft) S 180 0 min 3,8 C 4,5 C 16,1 km/h (3 Bft)
22.11.2019 10:45 4,3 C 95 % 1008,4 hPa 0,0 mm 1,5 km/h (1 Bft) S-SO 153 0 min 3,6 C 4,3 C 11,3 km/h (2 Bft)
22.11.2019 10:30 4,0 C 95 % 1008,6 hPa 0,0 mm 0,4 km/h (0 Bft) S 190 0 min 3,3 C 4,0 C 9,7 km/h (2 Bft)
22.11.2019 10:15 3,8 C 96 % 1008,5 hPa 0,0 mm 0,0 km/h (0 Bft) S 188 0 min 3,2 C 3,8 C 0,0 km/h (0 Bft)
22.11.2019 10:00 3,8 C 96 % 1008,4 hPa 0,0 mm 0,4 km/h (0 Bft) S 185 0 min 3,2 C 3,8 C 6,4 km/h (2 Bft)
22.11.2019 09:45 3,7 C 96 % 1008,5 hPa 0,0 mm 0,3 km/h (0 Bft) S 177 0 min 3,1 C 3,7 C 6,4 km/h (2 Bft)
22.11.2019 09:30 3,4 C 96 % 1008,3 hPa 0,0 mm 0,0 km/h (0 Bft) S-SO 167 0 min 2,8 C 3,4 C 0,0 km/h (0 Bft)
22.11.2019 09:15 3,3 C 96 % 1008,0 hPa 0,0 mm 2,9 km/h (1 Bft) S-SO 153 0 min 2,7 C 3,3 C 11,3 km/h (2 Bft)
22.11.2019 09:00 3,2 C 96 % 1008,1 hPa 0,0 mm 4,0 km/h (1 Bft) S-SO 168 0 min 2,6 C 3,2 C 14,5 km/h (3 Bft)
22.11.2019 08:45 3,2 C 96 % 1007,8 hPa 0,0 mm 3,5 km/h (1 Bft) S-SO 153 0 min 2,6 C 3,2 C 11,3 km/h (2 Bft)
22.11.2019 08:30 2,9 C 96 % 1007,8 hPa 0,0 mm 2,2 km/h (1 Bft) S-SO 153 0 min 2,3 C 2,9 C 11,3 km/h (2 Bft)
22.11.2019 08:15 2,5 C 96 % 1007,7 hPa 0,0 mm 0,0 km/h (0 Bft) S-SO 159 0 min 1,9 C 2,5 C 0,0 km/h (0 Bft)
22.11.2019 08:00 1,9 C 96 % 1007,8 hPa 0,0 mm 0,0 km/h (0 Bft) S-SO 158 0 min 1,3 C 1,9 C 1,6 km/h (1 Bft)
22.11.2019 07:45 1,6 C 95 % 1007,8 hPa 0,0 mm 0,0 km/h (0 Bft) S-SW 213 0 min 0,9 C 1,6 C 0,0 km/h (0 Bft)
22.11.2019 07:30 1,5 C 95 % 1007,8 hPa 0,0 mm 0,0 km/h (0 Bft) SW 216 0 min 0,8 C 1,5 C 0,0 km/h (0 Bft)
22.11.2019 07:15 1,6 C 95 % 1007,6 hPa 0,0 mm 0,0 km/h (0 Bft) SW 217 0 min 0,9 C 1,6 C 0,0 km/h (0 Bft)
22.11.2019 07:00 1,7 C 95 % 1007,5 hPa 0,0 mm 0,0 km/h (0 Bft) SW 217 0 min 1,0 C 1,7 C 0,0 km/h (0 Bft)
22.11.2019 06:45 1,8 C 95 % 1007,5 hPa 0,0 mm 0,0 km/h (0 Bft) SW 217 0 min 1,1 C 1,8 C 1,6 km/h (1 Bft)
22.11.2019 06:30 1,9 C 95 % 1007,2 hPa 0,0 mm 0,0 km/h (0 Bft) S 188 0 min 1,2 C 1,9 C 0,0 km/h (0 Bft)
22.11.2019 06:15 2,0 C 95 % 1007,6 hPa 0,0 mm 0,0 km/h (0 Bft) S 188 0 min 1,3 C 2,0 C 0,0 km/h (0 Bft)
22.11.2019 06:00 2,0 C 94 % 1007,5 hPa 0,0 mm 0,0 km/h (0 Bft) S 188 0 min 1,1 C 2,0 C 0,0 km/h (0 Bft)
22.11.2019 05:45 2,1 C 94 % 1007,5 hPa 0,0 mm 0,0 km/h (0 Bft) S 189 0 min 1,2 C 2,1 C 0,0 km/h (0 Bft)
22.11.2019 05:30 2,3 C 94 % 1007,5 hPa 0,0 mm 0,0 km/h (0 Bft) S 189 0 min 1,4 C 2,3 C 0,0 km/h (0 Bft)
22.11.2019 05:15 2,6 C 94 % 1007,3 hPa 0,0 mm 0,0 km/h (0 Bft) S 188 0 min 1,7 C 2,6 C 0,0 km/h (0 Bft)
22.11.2019 05:00 2,8 C 94 % 1007,2 hPa 0,0 mm 0,0 km/h (0 Bft) S 186 0 min 1,9 C 2,8 C 0,0 km/h (0 Bft)
22.11.2019 04:45 3,1 C 94 % 1007,2 hPa 0,0 mm 0,0 km/h (0 Bft) S 188 0 min 2,2 C 3,1 C 0,0 km/h (0 Bft)
22.11.2019 04:30 3,2 C 94 % 1007,2 hPa 0,0 mm 0,0 km/h (0 Bft) S 182 0 min 2,3 C 3,2 C 0,0 km/h (0 Bft)
22.11.2019 04:15 3,3 C 94 % 1007,2 hPa 0,0 mm 0,1 km/h (0 Bft) S 179 0 min 2,4 C 3,3 C 4,8 km/h (1 Bft)
22.11.2019 04:00 3,4 C 94 % 1007,2 hPa 0,0 mm 0,0 km/h (0 Bft) S 191 0 min 2,5 C 3,4 C 0,0 km/h (0 Bft)
22.11.2019 03:45 3,7 C 94 % 1007,2 hPa 0,0 mm 0,0 km/h (0 Bft) S-SW 206 0 min 2,8 C 3,7 C 0,0 km/h (0 Bft)
22.11.2019 03:30 3,8 C 93 % 1007,0 hPa 0,0 mm 0,0 km/h (0 Bft) S-SW 202 0 min 2,8 C 3,8 C 0,0 km/h (0 Bft)
22.11.2019 03:15 4,1 C 94 % 1006,8 hPa 0,0 mm 0,2 km/h (0 Bft) S-SW 196 0 min 3,2 C 4,1 C 6,4 km/h (2 Bft)
22.11.2019 03:00 4,2 C 94 % 1006,7 hPa 0,0 mm 0,2 km/h (0 Bft) S 176 0 min 3,3 C 4,2 C 4,8 km/h (1 Bft)
22.11.2019 02:45 4,1 C 93 % 1006,9 hPa 0,0 mm 0,0 km/h (0 Bft) S 175 0 min 3,1 C 4,1 C 0,0 km/h (0 Bft)
22.11.2019 02:30 4,2 C 93 % 1007,0 hPa 0,0 mm 0,0 km/h (0 Bft) S 174 0 min 3,2 C 4,2 C 0,0 km/h (0 Bft)
22.11.2019 02:15 4,3 C 93 % 1006,9 hPa 0,0 mm 0,0 km/h (0 Bft) S 174 0 min 3,3 C 4,3 C 0,0 km/h (0 Bft)
22.11.2019 02:00 4,4 C 93 % 1006,9 hPa 0,0 mm 0,0 km/h (0 Bft) S 174 0 min 3,4 C 4,4 C 0,0 km/h (0 Bft)
22.11.2019 01:45 4,4 C 93 % 1006,8 hPa 0,0 mm 0,1 km/h (0 Bft) S 173 0 min 3,4 C 4,4 C 6,4 km/h (2 Bft)
22.11.2019 01:30 4,3 C 93 % 1006,9 hPa 0,0 mm 0,0 km/h (0 Bft) S-SW 198 0 min 3,3 C 4,3 C 0,0 km/h (0 Bft)
22.11.2019 01:15 4,4 C 93 % 1006,9 hPa 0,0 mm 0,0 km/h (0 Bft) S-SW 197 0 min 3,4 C 4,4 C 0,0 km/h (0 Bft)
22.11.2019 01:00 4,6 C 92 % 1007,0 hPa 0,0 mm 0,0 km/h (0 Bft) S-SW 197 0 min 3,4 C 4,6 C 0,0 km/h (0 Bft)
22.11.2019 00:45 4,7 C 92 % 1006,7 hPa 0,0 mm 0,0 km/h (0 Bft) S 178 0 min 3,5 C 4,7 C 0,0 km/h (0 Bft)
22.11.2019 00:30 4,7 C 92 % 1006,6 hPa 0,0 mm 0,0 km/h (0 Bft) S 178 0 min 3,5 C 4,7 C 0,0 km/h (0 Bft)
22.11.2019 00:15 4,7 C 92 % 1006,7 hPa 0,0 mm 0,0 km/h (0 Bft) S 178 0 min 3,5 C 4,7 C 0,0 km/h (0 Bft)
22.11.2019 00:00 4,9 C 91 % 1006,8 hPa 0,0 mm 0,0 km/h (0 Bft) S 175 0 min 3,6 C 4,9 C 0,0 km/h (0 Bft)
21.11.2019 23:45 5,1 C 91 % 1006,8 hPa 0,0 mm 0,0 km/h (0 Bft) S 180 0 min 3,8 C 5,1 C 6,4 km/h (2 Bft)
21.11.2019 23:30 5,1 C 92 % 1006,8 hPa 0,0 mm 0,0 km/h (0 Bft) N 0 0 min 3,9 C 5,1 C 0,0 km/h (0 Bft)
21.11.2019 23:15 5,2 C 92 % 1006,8 hPa 0,0 mm 0,0 km/h (0 Bft) S 180 0 min 4,0 C 5,2 C 6,4 km/h (2 Bft)
21.11.2019 23:00 5,3 C 92 % 1006,8 hPa 0,0 mm 0,3 km/h (0 Bft) S 173 0 min 4,1 C 5,3 C 6,4 km/h (2 Bft)
21.11.2019 22:45 5,3 C 92 % 1006,8 hPa 0,0 mm 0,5 km/h (0 Bft) S-SO 167 0 min 4,1 C 5,3 C 9,7 km/h (2 Bft)
21.11.2019 22:30 5,2 C 93 % 1006,8 hPa 0,0 mm 2,0 km/h (1 Bft) S-SO 168 0 min 4,2 C 5,2 C 8,0 km/h (2 Bft)
21.11.2019 22:15 5,2 C 93 % 1007,0 hPa 0,0 mm 0,2 km/h (0 Bft) S 173 0 min 4,2 C 5,2 C 6,4 km/h (2 Bft)
21.11.2019 22:00 5,2 C 94 % 1007,0 hPa 0,0 mm 0,8 km/h (0 Bft) S-SO 165 0 min 4,3 C 5,2 C 8,0 km/h (2 Bft)
21.11.2019 21:45 5,2 C 94 % 1007,0 hPa 0,0 mm 1,9 km/h (1 Bft) S 169 0 min 4,3 C 5,2 C 9,7 km/h (2 Bft)
21.11.2019 21:30 5,1 C 94 % 1007,1 hPa 0,0 mm 0,0 km/h (0 Bft) S-SO 165 0 min 4,2 C 5,1 C 0,0 km/h (0 Bft)
21.11.2019 21:15 5,2 C 94 % 1007,1 hPa 0,0 mm 0,0 km/h (0 Bft) S 180 0 min 4,3 C 5,2 C 0,0 km/h (0 Bft)
21.11.2019 21:00 5,3 C 95 % 1007,0 hPa 0,0 mm 0,0 km/h (0 Bft) S-SO 167 0 min 4,6 C 5,3 C 0,0 km/h (0 Bft)
21.11.2019 20:45 5,3 C 95 % 1007,1 hPa 0,0 mm 0,0 km/h (0 Bft) S 171 0 min 4,6 C 5,3 C 1,6 km/h (1 Bft)
21.11.2019 20:30 5,3 C 95 % 1007,1 hPa 0,0 mm 0,0 km/h (0 Bft) S 173 0 min 4,6 C 5,3 C 0,0 km/h (0 Bft)
21.11.2019 20:15 5,3 C 95 % 1007,0 hPa 0,0 mm 0,3 km/h (0 Bft) S-SO 157 0 min 4,6 C 5,3 C 6,4 km/h (2 Bft)
21.11.2019 20:00 5,3 C 95 % 1007,0 hPa 0,0 mm 0,1 km/h (0 Bft) SO 126 0 min 4,6 C 5,3 C 4,8 km/h (1 Bft)
_ Min-Zeit 07:30 14:30 15:00 - 20:30 - - - 07:30 07:30 20:30
Minimum _ 1,5 C 88 % 1006,4 hPa - 0,0 km/h (0 Bft) - - - 0,8 C 1,5 C 0,0 km/h (0 Bft)
_ Max-Zeit 13:45 08:00 10:30 20:00 18:00 - - 20:00 13:45 13:45 18:00
Maximum _ 6,3 C 96 % 1008,6 hPa 0,0 mm 5,2 km/h
SO (1 Bft)
- - 0 min 4,6 C 6,3 C 22,5 km/h
SO (4 Bft)
Durchschnitt _ 4,5 C 93 % 1007,1 hPa #0,0 mm 0,6 km/h (0 Bft) S-SO - #0 min. 3,5 C 4,5 C 4,9 km/h (1 Bft)